MMCZ

Details ICAO MMCZ (CZM)
Name Cozumel Intl
Region Mexico
Timezone America/Cancun (UTC-5.0)
Plans Departing 84
Arriving 101
Stats Elevation 15 ft / 5 m (AMSL)
Location 20.522845° -86.928142°
Runways 2
Magnetic Variation 1.836° W
Sunrise 2018-05-26 11:09:03 UTC / 2018-05-26 06:09:03 Local
Sunset 2018-05-27 00:23:24 UTC / 2018-05-26 19:23:24 Local
Advertisement - Login to hide

Runways

ID Width Length Bearing (true) Bearing (mag) Surface Threshold Offset Overrun Length
05 148 ft / 45 m 10,172 ft / 3,101 m 55.07° 56.91° Asphalt 2,530 ft / 771 m 0 ft / 0 m
11 148 ft / 45 m 8,866 ft / 2,702 m 115.78° 117.62° Asphalt 656 ft / 200 m 0 ft / 0 m
23 148 ft / 45 m 10,172 ft / 3,101 m 235.08° 236.92° Asphalt 0 ft / 0 m 190 ft / 58 m
29 148 ft / 45 m 8,866 ft / 2,702 m 295.79° 297.63° Asphalt 0 ft / 0 m 210 ft / 64 m

Map

Weather


0- 5 10 15 20 25 30 35+ Temperature / ° C

Clouds and Precipitation
Forecast for 2018-05-27 00:00 UTC. Updated 3 hours ago

Ground ~20,000 ft ~40,000 ft Winds

METAR

Not found

TAF

TAF MMCZ 262311Z 2700/2806 13006KT P6SM SCT015 BKN080 BECMG 2703/2704 20005KT SCT015 FM271800 15006KT P6SM SCT015 PROB40 2719/2801 6SM -RA BKN015CB FM280300 12005KT P6SM SCT015

Frequencies

Tower 118.10 MHz TWR
Approach 120.40 MHz CANCUN ARR
Approach 120.40 MHz CANCUN APP
Departure 119.80 MHz CANCUN DEP
Warning: Do not use this data for real-world aviation or navigation. No guarantee of current accuracy is given.